Time;durP1;ratioP1;P1;durP2;ratioP2;P2;SDS_P1;SDS_P2;PMS_P1;PMS_P2;Temp;Humidity;BMP_temperature;BMP_pressure;BME280_temperature;BME280_humidity;BME280_pressure;Samples;Min_cycle;Max_cycle;Signal;HPM_P1;HPM_P2
2021/01/23 00:01:13;;;;;;;4.55;0.20;;;10.30;99.90;;;;;;5048743;28;20488;-55
2021/01/23 00:03:39;;;;;;;2.13;0.30;;;10.20;99.90;;;;;;5048916;28;20032;-55
2021/01/23 00:06:05;;;;;;;1.45;0.10;;;10.10;99.90;;;;;;5046530;28;20473;-56
2021/01/23 00:08:31;;;;;;;3.08;0.20;;;10.00;99.90;;;;;;5048831;28;20481;-53
2021/01/23 00:10:57;;;;;;;1.23;0.20;;;10.10;99.90;;;;;;5047415;28;20029;-54
2021/01/23 00:13:22;;;;;;;4.05;0.20;;;10.20;99.90;;;;;;5048724;28;20515;-55
2021/01/23 00:15:48;;;;;;;3.55;0.35;;;10.20;99.90;;;;;;5047319;28;20036;-56
2021/01/23 00:18:14;;;;;;;2.70;0.20;;;10.30;99.90;;;;;;5048559;28;20041;-52
2021/01/23 00:20:39;;;;;;;3.25;0.10;;;10.30;99.90;;;;;;5047514;28;20074;-54
2021/01/23 00:23:05;;;;;;;2.53;0.15;;;10.30;99.90;;;;;;5047527;28;20033;-55
2021/01/23 00:25:31;;;;;;;1.23;0.17;;;10.30;99.90;;;;;;5047632;28;20519;-53
2021/01/23 00:27:57;;;;;;;3.15;0.20;;;10.40;99.90;;;;;;5047396;28;20036;-54
2021/01/23 00:30:23;;;;;;;0.43;0.10;;;10.50;99.90;;;;;;5047066;28;20095;-56
2021/01/23 00:32:48;;;;;;;1.98;0.10;;;10.50;99.90;;;;;;5047220;28;20036;-54
2021/01/23 00:35:15;;;;;;;4.90;0.20;;;10.40;99.90;;;;;;5047696;28;20025;-53
2021/01/23 00:37:41;;;;;;;2.17;0.20;;;10.40;99.90;;;;;;5051678;28;20493;-55
2021/01/23 00:40:07;;;;;;;1.38;0.20;;;10.30;99.90;;;;;;5050061;28;20123;-53
2021/01/23 00:42:33;;;;;;;2.30;0.20;;;10.30;99.90;;;;;;5048514;28;20035;-56
2021/01/23 00:44:59;;;;;;;4.25;0.10;;;10.40;99.90;;;;;;5051218;28;20369;-55
2021/01/23 00:47:24;;;;;;;1.95;0.30;;;10.40;99.90;;;;;;5052502;28;20250;-54
2021/01/23 00:49:50;;;;;;;2.38;0.20;;;10.40;99.90;;;;;;5051640;28;20425;-56
2021/01/23 00:52:16;;;;;;;1.83;0.20;;;10.40;99.90;;;;;;5052387;28;20043;-55
2021/01/23 00:54:42;;;;;;;6.20;0.10;;;10.50;99.90;;;;;;5050923;28;20032;-51
2021/01/23 00:57:07;;;;;;;3.20;0.10;;;10.50;99.90;;;;;;5051403;28;20467;-58
2021/01/23 00:59:33;;;;;;;1.80;0.10;;;10.50;99.90;;;;;;5048896;28;20167;-56
2021/01/23 01:01:59;;;;;;;4.38;0.45;;;10.50;99.90;;;;;;5050591;28;20342;-55
2021/01/23 01:04:25;;;;;;;2.95;0.10;;;10.60;99.90;;;;;;5051139;28;20037;-55
2021/01/23 01:06:50;;;;;;;4.13;0.20;;;10.70;99.90;;;;;;5050648;28;20489;-53
2021/01/23 01:09:16;;;;;;;2.15;0.13;;;10.60;99.90;;;;;;5051767;28;20033;-56
2021/01/23 01:11:42;;;;;;;1.73;0.20;;;10.50;99.90;;;;;;5050917;28;20033;-51
2021/01/23 01:14:08;;;;;;;1.42;0.10;;;10.50;99.90;;;;;;5050982;28;20033;-56
2021/01/23 01:16:33;;;;;;;4.25;0.50;;;10.60;99.90;;;;;;5050907;28;20095;-56
2021/01/23 01:18:59;;;;;;;3.22;0.20;;;10.60;99.90;;;;;;5050742;28;20032;-57
2021/01/23 01:21:25;;;;;;;5.00;0.10;;;10.60;99.90;;;;;;5051528;28;20072;-56
2021/01/23 01:23:50;;;;;;;1.95;0.10;;;10.60;99.90;;;;;;5032436;28;20025;-52
2021/01/23 01:26:16;;;;;;;4.57;0.20;;;10.70;99.90;;;;;;5051458;28;20033;-50
2021/01/23 01:28:42;;;;;;;3.63;0.22;;;10.60;99.90;;;;;;5050144;28;20029;-53
2021/01/23 01:31:08;;;;;;;2.17;0.13;;;10.60;99.90;;;;;;5050316;28;20041;-54
2021/01/23 01:33:34;;;;;;;5.65;0.20;;;10.60;99.90;;;;;;5050335;28;20028;-55
2021/01/23 01:35:59;;;;;;;3.35;0.13;;;10.60;99.90;;;;;;5051302;28;20048;-55
2021/01/23 01:38:25;;;;;;;7.82;0.20;;;10.60;99.90;;;;;;5050034;28;20035;-54
2021/01/23 01:40:52;;;;;;;3.05;0.15;;;10.70;99.90;;;;;;5050056;28;20056;-56
2021/01/23 01:43:18;;;;;;;3.72;0.10;;;10.80;99.90;;;;;;5050726;28;20051;-54
2021/01/23 01:45:44;;;;;;;1.58;0.17;;;10.80;99.90;;;;;;5049269;28;20116;-55
2021/01/23 01:48:11;;;;;;;3.33;0.10;;;10.70;99.90;;;;;;5049197;28;20139;-56
2021/01/23 01:50:38;;;;;;;4.38;0.10;;;10.70;99.90;;;;;;5049508;28;20040;-56
2021/01/23 01:53:05;;;;;;;3.75;0.20;;;10.60;99.90;;;;;;5050877;28;20566;-53
2021/01/23 01:55:33;;;;;;;3.97;0.22;;;10.70;99.90;;;;;;5050008;28;20449;-54
2021/01/23 01:58:00;;;;;;;2.75;0.28;;;10.60;99.90;;;;;;5050953;28;20084;-56
2021/01/23 02:00:26;;;;;;;2.17;0.15;;;10.50;99.90;;;;;;5049924;28;20079;-56
2021/01/23 02:03:10;;;;;;;4.30;0.28;;;10.50;99.90;;;;;;5050988;28;20445;-55
2021/01/23 02:06:05;;;;;;;3.20;0.10;;;10.60;99.90;;;;;;5050159;28;20179;-54
2021/01/23 02:09:01;;;;;;;5.45;0.15;;;10.60;99.90;;;;;;5028559;28;20553;-55
2021/01/23 02:11:35;;;;;;;5.95;0.10;;;10.70;99.90;;;;;;5050702;28;20029;-55
2021/01/23 02:14:17;;;;;;;5.50;0.40;;;10.70;99.90;;;;;;5049847;28;20033;-52
2021/01/23 02:16:47;;;;;;;1.92;0.20;;;10.70;99.90;;;;;;5050782;28;20059;-55
2021/01/23 02:19:32;;;;;;;2.17;0.10;;;10.70;99.90;;;;;;5049370;28;20354;-52
2021/01/23 02:22:20;;;;;;;5.75;0.20;;;10.70;99.90;;;;;;5050495;28;20029;-54
2021/01/23 02:24:49;;;;;;;2.33;0.10;;;10.70;99.90;;;;;;5029438;28;20041;-55
2021/01/23 02:27:40;;;;;;;1.45;0.20;;;10.80;99.90;;;;;;5050739;28;20052;-52
2021/01/23 02:30:18;;;;;;;2.75;0.30;;;10.70;99.90;;;;;;5048551;28;20558;-52
2021/01/23 02:32:49;;;;;;;2.40;0.10;;;10.60;99.90;;;;;;5049560;28;20029;-54
2021/01/23 02:35:16;;;;;;;5.82;0.40;;;10.60;99.90;;;;;;5049356;28;20160;-55
2021/01/23 02:37:43;;;;;;;4.57;0.13;;;10.70;99.90;;;;;;5049733;28;20473;-51
2021/01/23 02:40:10;;;;;;;2.65;0.20;;;10.60;99.90;;;;;;5050183;28;20116;-53
2021/01/23 02:42:36;;;;;;;3.08;0.10;;;10.70;99.90;;;;;;5049472;28;20151;-55
2021/01/23 02:45:05;;;;;;;0.60;0.10;;;10.70;99.90;;;;;;5049308;28;20429;-55
2021/01/23 02:47:30;;;;;;;3.63;0.13;;;10.70;99.90;;;;;;5048426;28;20041;-50
2021/01/23 02:49:57;;;;;;;3.05;0.10;;;10.70;99.90;;;;;;5048366;28;20036;-54
2021/01/23 02:52:51;;;;;;;0.77;0.10;;;10.70;99.90;;;;;;5049045;28;20025;-56
2021/01/23 02:55:23;;;;;;;3.25;0.10;;;10.70;99.90;;;;;;5031067;28;20040;-52
2021/01/23 02:57:50;;;;;;;4.45;0.15;;;10.80;99.90;;;;;;5048416;28;20084;-55
2021/01/23 03:00:18;;;;;;;4.05;0.10;;;10.70;99.90;;;;;;5049762;28;20068;-52
2021/01/23 03:02:49;;;;;;;2.67;0.10;;;10.60;99.90;;;;;;5048666;28;20033;-51
2021/01/23 03:05:16;;;;;;;1.63;0.20;;;10.60;99.90;;;;;;5048806;28;20111;-54
2021/01/23 03:07:42;;;;;;;4.35;0.10;;;10.60;99.90;;;;;;5048843;28;20029;-55
2021/01/23 03:10:09;;;;;;;4.25;0.10;;;10.60;99.90;;;;;;5049526;28;20622;-55
2021/01/23 03:12:35;;;;;;;5.95;0.10;;;10.50;99.90;;;;;;5049095;28;20025;-57
2021/01/23 03:15:01;;;;;;;1.20;0.30;;;10.60;99.90;;;;;;5046748;28;20357;-55
2021/01/23 03:17:27;;;;;;;3.50;0.20;;;10.50;99.90;;;;;;5031773;28;20037;-56
2021/01/23 03:19:53;;;;;;;2.28;0.17;;;10.40;99.90;;;;;;5048596;28;20201;-55
2021/01/23 03:22:19;;;;;;;3.20;0.55;;;10.40;99.90;;;;;;5048360;28;20523;-53
2021/01/23 03:24:45;;;;;;;1.65;0.10;;;10.40;99.90;;;;;;5048044;28;20037;-52
2021/01/23 03:27:11;;;;;;;4.45;0.25;;;10.40;99.90;;;;;;5049339;28;20075;-53
2021/01/23 03:29:37;;;;;;;3.35;0.20;;;10.50;99.90;;;;;;5048426;28;20562;-52
2021/01/23 03:32:03;;;;;;;2.88;0.10;;;10.50;99.90;;;;;;5048241;28;20057;-52
2021/01/23 03:34:29;;;;;;;1.27;0.10;;;10.50;99.90;;;;;;5048198;28;20039;-50
2021/01/23 03:36:55;;;;;;;4.38;0.10;;;10.50;99.90;;;;;;5048859;28;20512;-50
2021/01/23 03:39:20;;;;;;;3.28;0.10;;;10.50;99.90;;;;;;5047769;28;20085;-50
2021/01/23 03:41:46;;;;;;;2.70;0.20;;;10.40;99.90;;;;;;5047881;28;20052;-55
2021/01/23 03:44:12;;;;;;;8.85;0.30;;;10.40;99.90;;;;;;5047894;28;20380;-53
2021/01/23 03:46:38;;;;;;;3.17;0.10;;;10.40;99.90;;;;;;5048634;28;20074;-49
2021/01/23 03:49:04;;;;;;;4.53;0.10;;;10.40;99.90;;;;;;5049102;28;20028;-54
2021/01/23 03:54:05;;;;;;;6.32;0.20;;;10.40;99.90;;;;;;5086611;22;20080;-55
2021/01/23 03:56:30;;;;;;;5.40;0.52;;;10.40;99.90;;;;;;5068038;28;20494;-53
2021/01/23 03:58:56;;;;;;;4.95;0.38;;;10.30;99.90;;;;;;5068302;28;20042;-54
2021/01/23 04:01:22;;;;;;;4.50;0.57;;;10.30;99.90;;;;;;5067789;28;20503;-54
2021/01/23 04:03:48;;;;;;;2.83;0.20;;;10.30;99.90;;;;;;5068848;28;20024;-55
2021/01/23 04:06:13;;;;;;;4.95;0.17;;;10.30;99.90;;;;;;5067664;28;20436;-56
2021/01/23 04:08:39;;;;;;;3.42;0.20;;;10.30;99.90;;;;;;5068992;28;20036;-52
2021/01/23 04:11:05;;;;;;;4.97;0.20;;;10.30;99.90;;;;;;5067470;28;20102;-54
2021/01/23 04:13:30;;;;;;;2.70;0.10;;;10.30;99.90;;;;;;5067900;28;20039;-54
2021/01/23 04:15:56;;;;;;;4.63;0.17;;;10.40;99.90;;;;;;5067788;28;20028;-55
2021/01/23 04:18:22;;;;;;;3.70;0.10;;;10.40;99.90;;;;;;5068902;28;20032;-54
2021/01/23 04:20:49;;;;;;;5.78;0.10;;;10.40;99.90;;;;;;5067848;28;20068;-52
2021/01/23 04:23:15;;;;;;;6.10;0.20;;;10.30;99.90;;;;;;5067523;28;20040;-54
2021/01/23 04:25:40;;;;;;;2.67;0.13;;;10.30;99.90;;;;;;5067869;28;20518;-53
2021/01/23 04:28:06;;;;;;;4.95;0.25;;;10.30;99.90;;;;;;5068310;28;20049;-49
2021/01/23 04:30:32;;;;;;;5.70;0.10;;;10.40;99.90;;;;;;5066962;28;20059;-53
2021/01/23 04:32:58;;;;;;;5.60;0.30;;;10.40;99.90;;;;;;5065615;28;20041;-54
2021/01/23 04:35:24;;;;;;;2.38;0.17;;;10.40;99.90;;;;;;5067586;28;20480;-49
2021/01/23 04:37:50;;;;;;;5.22;0.30;;;10.40;99.90;;;;;;5067317;28;20492;-52
2021/01/23 04:40:15;;;;;;;3.90;0.28;;;10.40;99.90;;;;;;5068352;28;20032;-52
2021/01/23 04:42:42;;;;;;;5.25;0.30;;;10.40;99.90;;;;;;5067012;28;20393;-51
2021/01/23 04:45:10;;;;;;;3.92;0.20;;;10.40;99.90;;;;;;5068574;28;20072;-51
2021/01/23 04:47:36;;;;;;;10.60;2.25;;;10.50;99.90;;;;;;5067254;28;20180;-54
2021/01/23 04:50:04;;;;;;;9.80;0.20;;;10.60;99.90;;;;;;5068169;28;20043;-50
2021/01/23 04:52:33;;;;;;;4.40;0.20;;;10.70;99.90;;;;;;5067780;28;20141;-55
2021/01/23 04:54:59;;;;;;;6.38;0.20;;;10.70;99.90;;;;;;5068093;28;20135;-55
2021/01/23 04:57:25;;;;;;;7.95;0.40;;;10.70;99.90;;;;;;5067130;28;20491;-52
2021/01/23 04:59:51;;;;;;;13.68;1.00;;;10.70;99.90;;;;;;5067633;28;20044;-53
2021/01/23 05:02:17;;;;;;;4.35;0.20;;;10.80;99.90;;;;;;5067566;28;20143;-52
2021/01/23 05:04:48;;;;;;;7.60;0.38;;;10.80;99.90;;;;;;5068060;28;20504;-49
2021/01/23 05:07:46;;;;;;;4.90;0.50;;;10.70;99.90;;;;;;5067211;28;20024;-51
2021/01/23 05:10:24;;;;;;;10.98;0.40;;;10.70;99.90;;;;;;5034002;28;20044;-53
2021/01/23 05:12:54;;;;;;;5.90;0.30;;;10.60;99.90;;;;;;5067237;28;20032;-56
2021/01/23 05:15:28;;;;;;;4.82;0.60;;;10.70;99.90;;;;;;5068043;28;20032;-52
2021/01/23 05:18:07;;;;;;;6.32;0.30;;;10.60;99.90;;;;;;5067198;28;20029;-50
2021/01/23 05:20:46;;;;;;;7.53;0.50;;;10.60;99.90;;;;;;5067968;28;20076;-52
2021/01/23 05:23:14;;;;;;;6.43;0.30;;;10.60;99.90;;;;;;5070567;28;20283;-53
2021/01/23 05:25:42;;;;;;;4.85;0.30;;;10.50;99.90;;;;;;5071779;28;20028;-54
2021/01/23 05:28:10;;;;;;;3.67;0.20;;;10.60;99.90;;;;;;5070456;28;20044;-54
2021/01/23 05:30:44;;;;;;;9.27;0.90;;;10.60;99.90;;;;;;5070595;28;20043;-55
2021/01/23 05:33:16;;;;;;;5.68;0.30;;;10.50;99.90;;;;;;5071408;28;20403;-55
2021/01/23 05:35:44;;;;;;;12.57;1.17;;;10.60;99.90;;;;;;5071855;28;20032;-54
2021/01/23 05:38:24;;;;;;;5.43;0.38;;;10.60;99.90;;;;;;5070629;28;20044;-52
2021/01/23 05:40:53;;;;;;;11.93;0.60;;;10.60;99.90;;;;;;5071596;28;20087;-55
2021/01/23 05:43:33;;;;;;;4.63;0.30;;;10.60;99.90;;;;;;5071293;28;20036;-56
2021/01/23 05:46:02;;;;;;;4.47;0.50;;;10.70;99.90;;;;;;5052936;28;20028;-55
2021/01/23 05:48:27;;;;;;;7.40;1.02;;;10.70;99.90;;;;;;5070473;28;20033;-54
2021/01/23 05:50:53;;;;;;;9.00;0.50;;;10.70;99.90;;;;;;5071367;28;20124;-55
2021/01/23 05:53:19;;;;;;;11.65;0.63;;;10.70;99.90;;;;;;5070365;28;20498;-54
2021/01/23 05:55:45;;;;;;;7.22;1.05;;;10.70;99.90;;;;;;5069950;28;20376;-54
2021/01/23 05:58:11;;;;;;;8.57;0.40;;;10.60;99.90;;;;;;5071230;28;20098;-53
2021/01/23 06:00:38;;;;;;;5.05;0.20;;;10.60;99.90;;;;;;5066512;28;20048;-55
2021/01/23 06:03:04;;;;;;;8.38;0.35;;;10.50;99.90;;;;;;5050934;28;20561;-54
2021/01/23 06:05:30;;;;;;;9.00;0.32;;;10.50;99.90;;;;;;5065335;28;20037;-55
2021/01/23 06:07:56;;;;;;;9.50;0.60;;;10.50;99.90;;;;;;5070743;28;20036;-54
2021/01/23 06:10:21;;;;;;;7.55;1.20;;;10.50;99.90;;;;;;5069221;28;20036;-53
2021/01/23 06:12:48;;;;;;;12.80;0.70;;;10.50;99.90;;;;;;5070878;28;20509;-53
2021/01/23 06:15:35;;;;;;;4.95;0.20;;;10.50;99.90;;;;;;5069896;28;20063;-52
2021/01/23 06:18:06;;;;;;;6.78;0.63;;;10.50;99.90;;;;;;5070868;28;20062;-49
2021/01/23 06:20:41;;;;;;;13.85;1.52;;;10.50;99.90;;;;;;5068795;28;20055;-53
2021/01/23 06:23:11;;;;;;;5.28;0.40;;;10.60;99.90;;;;;;5070663;28;20055;-53
2021/01/23 06:25:58;;;;;;;9.55;0.40;;;10.60;99.90;;;;;;5069774;28;20386;-53
2021/01/23 06:28:30;;;;;;;5.78;0.30;;;10.60;99.90;;;;;;5069710;28;20033;-52
2021/01/23 06:30:55;;;;;;;7.28;1.10;;;10.70;99.90;;;;;;5068532;28;20033;-53
2021/01/23 06:33:24;;;;;;;5.75;0.30;;;10.60;99.90;;;;;;5069835;28;20028;-49
2021/01/23 06:36:02;;;;;;;5.60;0.95;;;10.70;99.90;;;;;;5069232;28;20081;-52
2021/01/23 06:38:28;;;;;;;8.75;0.68;;;10.70;99.90;;;;;;5059044;28;20045;-52
2021/01/23 06:40:54;;;;;;;5.65;0.40;;;10.70;99.90;;;;;;5056406;28;20052;-53
2021/01/23 06:43:20;;;;;;;8.48;0.40;;;10.70;99.90;;;;;;5050388;28;20035;-54
2021/01/23 06:45:46;;;;;;;4.00;0.30;;;10.60;99.90;;;;;;5069083;28;20498;-50
2021/01/23 06:48:12;;;;;;;4.50;0.52;;;10.50;99.90;;;;;;5064853;28;20028;-50
2021/01/23 06:50:40;;;;;;;5.00;0.57;;;10.60;99.90;;;;;;5069419;28;20048;-49
2021/01/23 06:53:18;;;;;;;7.30;0.88;;;10.60;99.90;;;;;;5069005;28;20507;-49
2021/01/23 06:55:51;;;;;;;4.00;0.25;;;10.50;99.90;;;;;;5070061;28;20041;-52
2021/01/23 06:58:34;;;;;;;3.75;0.50;;;10.50;99.90;;;;;;5069301;28;20035;-52
2021/01/23 07:01:01;;;;;;;2.35;0.20;;;10.50;99.90;;;;;;5068218;28;20044;-55
2021/01/23 07:03:28;;;;;;;7.40;0.40;;;10.50;99.90;;;;;;5068999;28;20119;-49
2021/01/23 07:05:56;;;;;;;6.43;0.30;;;10.50;99.90;;;;;;5067096;28;20447;-53
2021/01/23 07:08:33;;;;;;;6.63;0.40;;;10.50;99.90;;;;;;5051630;28;20029;-52
2021/01/23 07:11:09;;;;;;;7.15;0.45;;;10.50;99.90;;;;;;5062217;28;20040;-51
2021/01/23 07:13:36;;;;;;;5.13;0.30;;;10.50;99.90;;;;;;5066803;28;20453;-50
2021/01/23 07:16:02;;;;;;;3.90;0.50;;;10.50;99.90;;;;;;5050474;28;20091;-51
2021/01/23 07:18:28;;;;;;;5.50;0.82;;;10.50;99.90;;;;;;5061589;28;20025;-53
2021/01/23 07:20:54;;;;;;;7.60;1.58;;;10.50;99.90;;;;;;5069027;28;20052;-54
2021/01/23 07:23:20;;;;;;;2.08;0.30;;;10.50;99.90;;;;;;5068826;28;20020;-55
2021/01/23 07:25:48;;;;;;;5.82;0.20;;;10.40;99.90;;;;;;5069330;28;20032;-52
2021/01/23 07:28:21;;;;;;;5.45;1.10;;;10.40;99.90;;;;;;5061930;28;20078;-50
2021/01/23 07:30:47;;;;;;;4.00;0.73;;;10.30;99.90;;;;;;5063260;28;20028;-55
2021/01/23 07:33:28;;;;;;;11.18;0.63;;;10.30;99.90;;;;;;5067642;28;20078;-55
2021/01/23 07:35:54;;;;;;;7.28;0.20;;;10.10;99.90;;;;;;5066617;28;20037;-55
2021/01/23 07:38:20;;;;;;;6.13;0.22;;;10.00;99.90;;;;;;5063701;28;20029;-52
2021/01/23 07:40:46;;;;;;;5.18;0.30;;;10.00;99.90;;;;;;5064223;28;20530;-52
2021/01/23 07:43:12;;;;;;;5.05;0.50;;;9.90;99.90;;;;;;5057744;28;20040;-50
2021/01/23 07:45:38;;;;;;;15.50;4.72;;;9.80;99.90;;;;;;5063390;28;20361;-52
2021/01/23 07:48:07;;;;;;;3.85;0.40;;;9.70;99.90;;;;;;5068765;28;20515;-52
2021/01/23 07:50:46;;;;;;;2.78;0.20;;;9.30;99.90;;;;;;5027504;28;20116;-52
2021/01/23 07:53:22;;;;;;;2.67;0.10;;;8.90;99.90;;;;;;5036458;28;20056;-54
2021/01/23 07:55:49;;;;;;;1.30;0.10;;;8.20;99.90;;;;;;5057169;28;20442;-54
2021/01/23 07:58:16;;;;;;;6.88;0.10;;;7.80;99.90;;;;;;5052984;28;20025;-50
2021/01/23 08:00:43;;;;;;;0.93;0.10;;;7.70;99.90;;;;;;5064378;28;20044;-54
2021/01/23 08:03:09;;;;;;;2.65;0.20;;;7.60;99.90;;;;;;5066810;28;20043;-53
2021/01/23 08:05:54;;;;;;;5.22;0.13;;;7.50;99.90;;;;;;5068128;28;20032;-51
2021/01/23 08:08:36;;;;;;;2.42;0.00;;;7.50;99.90;;;;;;5068501;28;20037;-54
2021/01/23 08:11:06;;;;;;;2.83;0.00;;;7.50;99.90;;;;;;5068368;28;20028;-53
2021/01/23 08:13:34;;;;;;;1.98;0.20;;;7.40;99.90;;;;;;5068597;28;20020;-54
2021/01/23 08:16:14;;;;;;;1.70;0.10;;;7.40;99.90;;;;;;5068638;28;20032;-53
2021/01/23 08:18:43;;;;;;;1.08;0.10;;;7.30;99.90;;;;;;5068380;28;20098;-54
2021/01/23 08:21:19;;;;;;;2.03;0.20;;;7.10;99.90;;;;;;5068205;28;20040;-54
2021/01/23 08:23:46;;;;;;;3.72;0.20;;;7.00;99.90;;;;;;5068242;28;20114;-54
2021/01/23 08:26:12;;;;;;;2.05;0.20;;;7.00;99.90;;;;;;5068532;28;20402;-54
2021/01/23 08:28:46;;;;;;;5.88;0.20;;;7.10;99.90;;;;;;5068455;28;20048;-53
2021/01/23 08:31:23;;;;;;;2.95;0.20;;;7.10;99.90;;;;;;5068408;28;20112;-53
2021/01/23 08:33:57;;;;;;;5.20;0.35;;;7.20;99.90;;;;;;5068022;28;20054;-53
2021/01/23 08:36:26;;;;;;;1.63;0.10;;;7.30;99.90;;;;;;5068529;28;20029;-53
2021/01/23 08:39:04;;;;;;;4.35;0.30;;;7.30;99.90;;;;;;5068238;28;20086;-53
2021/01/23 08:41:31;;;;;;;4.88;0.60;;;7.40;99.90;;;;;;5067765;28;20123;-53
2021/01/23 08:43:56;;;;;;;5.50;0.50;;;7.40;99.90;;;;;;5067937;28;20029;-52
2021/01/23 08:46:22;;;;;;;5.70;0.50;;;7.50;99.90;;;;;;5067813;28;20515;-54
2021/01/23 08:48:50;;;;;;;3.67;0.20;;;7.50;99.90;;;;;;5068250;28;20033;-53
2021/01/23 08:51:16;;;;;;;0.85;0.20;;;7.50;99.90;;;;;;5068048;28;20052;-54
2021/01/23 08:53:42;;;;;;;5.78;0.20;;;7.60;99.90;;;;;;5067880;28;20053;-55
2021/01/23 08:56:08;;;;;;;2.35;0.20;;;7.50;99.90;;;;;;5068086;28;20423;-54
2021/01/23 08:58:34;;;;;;;2.90;0.20;;;7.50;99.90;;;;;;5071857;28;20043;-57
2021/01/23 09:01:00;;;;;;;3.55;0.20;;;7.50;99.90;;;;;;5071958;28;20033;-54
2021/01/23 09:03:25;;;;;;;3.22;0.10;;;7.50;99.90;;;;;;5071973;28;20500;-54
2021/01/23 09:05:51;;;;;;;2.15;0.10;;;7.60;99.90;;;;;;5071855;28;20081;-54
2021/01/23 09:08:17;;;;;;;2.50;0.70;;;7.60;99.90;;;;;;5071823;28;20028;-54
2021/01/23 09:10:43;;;;;;;1.42;0.20;;;7.60;99.90;;;;;;5071973;28;20032;-51
2021/01/23 09:13:09;;;;;;;1.42;0.13;;;7.70;99.90;;;;;;5071735;28;20464;-55
2021/01/23 09:15:34;;;;;;;2.15;0.10;;;7.70;99.90;;;;;;5071713;28;20115;-52
2021/01/23 09:18:00;;;;;;;3.35;0.17;;;7.80;99.90;;;;;;5071655;28;20199;-54
2021/01/23 09:20:26;;;;;;;2.35;0.30;;;7.80;99.90;;;;;;5071833;28;20087;-54
2021/01/23 09:22:51;;;;;;;3.55;0.40;;;7.90;99.90;;;;;;5071516;28;20107;-54
2021/01/23 09:25:19;;;;;;;4.57;0.40;;;7.80;99.90;;;;;;5071615;28;20039;-54
2021/01/23 09:27:45;;;;;;;5.07;0.40;;;7.80;99.90;;;;;;5069351;28;20047;-53
2021/01/23 09:30:14;;;;;;;2.10;0.40;;;7.80;99.90;;;;;;5071385;28;20394;-53
2021/01/23 09:32:43;;;;;;;4.22;0.28;;;7.80;99.90;;;;;;5071569;28;20452;-53
2021/01/23 09:35:11;;;;;;;1.80;0.20;;;7.80;99.90;;;;;;5071482;28;20028;-55
2021/01/23 09:37:37;;;;;;;4.22;0.65;;;7.70;99.90;;;;;;5071369;28;20451;-54
2021/01/23 09:40:04;;;;;;;3.13;0.20;;;7.70;99.90;;;;;;5071343;28;20040;-52
2021/01/23 09:42:30;;;;;;;2.15;0.40;;;7.70;99.90;;;;;;5071294;28;20100;-55
2021/01/23 09:44:55;;;;;;;3.97;0.55;;;7.70;99.90;;;;;;5071334;28;20120;-54
2021/01/23 09:47:21;;;;;;;8.52;0.70;;;7.60;99.90;;;;;;5071641;28;20032;-55
2021/01/23 09:49:48;;;;;;;7.22;0.95;;;7.60;99.90;;;;;;5071275;28;20051;-56
2021/01/23 09:52:14;;;;;;;4.80;2.20;;;7.70;99.90;;;;;;5071132;28;20052;-55
2021/01/23 09:54:40;;;;;;;6.00;0.95;;;7.60;99.90;;;;;;5070916;28;20174;-55
2021/01/23 09:57:06;;;;;;;4.65;1.15;;;7.60;99.90;;;;;;5071011;28;20044;-53
2021/01/23 09:59:32;;;;;;;5.82;0.90;;;7.60;99.90;;;;;;5079375;28;20028;-54
2021/01/23 10:01:59;;;;;;;7.38;0.88;;;7.60;99.90;;;;;;5091350;28;20085;-53
2021/01/23 10:04:25;;;;;;;2.40;0.50;;;7.50;99.90;;;;;;5091407;28;20032;-54
2021/01/23 10:06:51;;;;;;;6.80;0.40;;;7.40;99.90;;;;;;5091334;28;20028;-57
2021/01/23 10:09:17;;;;;;;5.57;0.57;;;7.40;99.90;;;;;;5089929;28;20027;-54
2021/01/23 10:11:43;;;;;;;4.75;0.50;;;7.50;99.90;;;;;;5090706;28;20036;-54
2021/01/23 10:14:09;;;;;;;7.60;1.95;;;7.40;99.90;;;;;;5090768;28;20032;-52
2021/01/23 10:16:35;;;;;;;6.53;1.40;;;7.50;99.90;;;;;;5091257;28;20062;-53
2021/01/23 10:19:03;;;;;;;3.17;0.80;;;7.40;99.90;;;;;;5091074;28;20028;-55
2021/01/23 10:21:29;;;;;;;2.28;0.50;;;7.40;99.90;;;;;;5090736;28;20040;-54
2021/01/23 10:23:55;;;;;;;1.40;0.20;;;7.40;99.90;;;;;;5090573;28;20043;-55
2021/01/23 10:26:20;;;;;;;1.55;0.30;;;7.30;99.90;;;;;;5090449;28;20111;-54
2021/01/23 10:28:46;;;;;;;1.35;0.30;;;7.30;99.90;;;;;;5090416;28;20032;-55
2021/01/23 10:31:12;;;;;;;0.50;0.20;;;7.30;99.90;;;;;;5090618;28;20302;-53
2021/01/23 10:33:37;;;;;;;1.27;0.20;;;7.30;99.90;;;;;;5086078;28;20028;-53
2021/01/23 10:36:03;;;;;;;1.50;0.30;;;7.30;99.90;;;;;;5064616;28;20376;-54
2021/01/23 10:38:29;;;;;;;2.92;0.30;;;7.30;99.90;;;;;;5065253;28;20048;-56
2021/01/23 10:40:55;;;;;;;0.93;0.28;;;7.30;99.90;;;;;;5050492;28;20401;-55
2021/01/23 10:43:21;;;;;;;1.38;0.13;;;7.30;99.90;;;;;;5064914;28;20055;-54
2021/01/23 10:45:47;;;;;;;1.40;0.25;;;7.30;99.90;;;;;;5050513;28;20032;-55
2021/01/23 10:48:13;;;;;;;1.13;0.20;;;7.30;99.90;;;;;;5061729;28;20048;-50
2021/01/23 10:50:38;;;;;;;1.33;0.30;;;7.30;99.90;;;;;;5070048;28;20028;-50
2021/01/23 10:53:04;;;;;;;0.95;0.22;;;7.30;99.90;;;;;;5069738;28;20056;-54
2021/01/23 10:55:30;;;;;;;1.33;0.20;;;7.30;99.90;;;;;;5069833;28;20388;-55
2021/01/23 10:57:56;;;;;;;0.60;0.20;;;7.30;99.90;;;;;;5069033;28;20058;-53
2021/01/23 11:00:22;;;;;;;1.00;0.20;;;7.30;99.90;;;;;;5069072;28;20442;-53
2021/01/23 11:02:47;;;;;;;1.35;0.30;;;7.40;99.90;;;;;;5069898;28;20539;-53
2021/01/23 11:05:13;;;;;;;0.52;0.10;;;7.50;99.90;;;;;;5069856;28;20504;-56
2021/01/23 11:07:39;;;;;;;0.73;0.10;;;7.40;99.90;;;;;;5069810;28;20525;-54
2021/01/23 11:10:05;;;;;;;1.33;0.20;;;7.50;99.90;;;;;;5070047;28;20103;-55
2021/01/23 11:12:31;;;;;;;2.97;0.38;;;7.50;99.90;;;;;;5069728;28;20108;-54
2021/01/23 11:14:57;;;;;;;6.53;0.85;;;7.60;99.90;;;;;;5069515;28;20112;-54
2021/01/23 11:17:22;;;;;;;3.78;0.82;;;7.70;99.90;;;;;;5069774;28;20032;-54
2021/01/23 11:19:48;;;;;;;5.78;1.27;;;7.90;99.90;;;;;;5069608;28;20040;-56
2021/01/23 11:22:14;;;;;;;7.43;2.58;;;7.90;99.90;;;;;;5051360;28;20046;-51
2021/01/23 11:24:42;;;;;;;4.93;1.48;;;8.10;99.90;;;;;;5069278;28;20131;-54
2021/01/23 11:27:08;;;;;;;3.22;0.80;;;8.10;99.90;;;;;;5069366;28;20024;-52
2021/01/23 11:29:34;;;;;;;2.65;0.47;;;8.20;99.90;;;;;;5069300;28;20039;-55
2021/01/23 11:32:01;;;;;;;3.30;0.57;;;8.20;99.90;;;;;;5069241;28;20048;-53
2021/01/23 11:34:26;;;;;;;4.63;0.88;;;8.20;99.90;;;;;;5069467;28;20039;-54
2021/01/23 11:36:52;;;;;;;3.58;0.70;;;8.10;99.90;;;;;;5069524;28;20040;-54
2021/01/23 11:39:18;;;;;;;5.10;0.80;;;8.10;99.90;;;;;;5069033;28;20518;-54
2021/01/23 11:41:45;;;;;;;2.92;1.13;;;8.10;99.90;;;;;;5069131;28;20127;-55
2021/01/23 11:44:11;;;;;;;2.83;0.90;;;8.00;99.90;;;;;;5069139;28;20456;-55
2021/01/23 11:46:37;;;;;;;5.15;0.90;;;8.00;99.90;;;;;;5069200;28;20102;-56
2021/01/23 11:49:03;;;;;;;5.30;0.68;;;8.00;99.90;;;;;;5069056;28;20119;-53
2021/01/23 11:51:29;;;;;;;1.75;0.80;;;8.10;99.90;;;;;;5069054;28;20380;-52
2021/01/23 11:53:55;;;;;;;4.47;0.82;;;8.10;99.90;;;;;;5068683;28;20104;-50
2021/01/23 11:56:20;;;;;;;2.53;0.30;;;8.10;99.90;;;;;;5068932;28;20128;-50
2021/01/23 11:58:47;;;;;;;2.45;0.20;;;7.90;99.90;;;;;;5069152;28;20093;-54
2021/01/23 12:01:12;;;;;;;1.13;0.10;;;7.60;99.90;;;;;;5068524;28;20052;-51
2021/01/23 12:03:38;;;;;;;1.88;0.10;;;7.50;99.90;;;;;;5067935;28;20036;-51
2021/01/23 12:06:04;;;;;;;2.88;1.05;;;7.40;99.90;;;;;;5068931;28;20502;-49
2021/01/23 12:08:29;;;;;;;1.83;0.20;;;7.40;99.90;;;;;;5068717;28;20028;-53
2021/01/23 12:10:56;;;;;;;0.68;0.47;;;7.30;99.90;;;;;;5068824;28;20384;-52
2021/01/23 12:13:22;;;;;;;1.77;0.10;;;7.30;99.90;;;;;;5068694;28;20085;-52
2021/01/23 12:15:48;;;;;;;1.48;0.20;;;7.30;99.90;;;;;;5068716;28;20507;-50
2021/01/23 12:18:13;;;;;;;1.77;0.10;;;7.20;99.90;;;;;;5068655;28;20024;-51
2021/01/23 12:20:39;;;;;;;3.25;0.20;;;7.20;99.90;;;;;;5068516;28;20049;-50
2021/01/23 12:23:05;;;;;;;2.17;0.10;;;7.10;99.90;;;;;;5064472;28;20119;-49
2021/01/23 12:25:30;;;;;;;0.60;0.10;;;7.00;99.90;;;;;;5063161;28;20064;-52
2021/01/23 12:27:56;;;;;;;1.50;0.10;;;7.00;99.90;;;;;;5060942;28;20499;-52
2021/01/23 12:30:22;;;;;;;2.28;0.10;;;7.00;99.90;;;;;;5064170;28;20549;-53
2021/01/23 12:32:49;;;;;;;2.75;0.25;;;6.90;99.90;;;;;;5056797;28;20151;-55
2021/01/23 12:35:15;;;;;;;1.20;0.10;;;6.90;99.90;;;;;;5046835;28;20040;-56
2021/01/23 12:37:41;;;;;;;2.90;0.20;;;6.90;99.90;;;;;;5060783;28;20033;-55
2021/01/23 12:40:08;;;;;;;0.65;0.10;;;6.90;99.90;;;;;;5064182;28;20037;-55
2021/01/23 12:42:34;;;;;;;1.70;0.10;;;6.80;99.90;;;;;;5061595;28;20031;-55
2021/01/23 12:45:00;;;;;;;1.13;0.20;;;6.80;99.90;;;;;;5060978;28;20031;-57
2021/01/23 12:47:27;;;;;;;2.10;0.20;;;6.80;99.90;;;;;;5061145;28;20032;-51
2021/01/23 12:49:54;;;;;;;1.55;0.30;;;6.70;99.90;;;;;;5063934;28;20056;-54
2021/01/23 12:52:19;;;;;;;2.42;0.20;;;6.70;99.90;;;;;;5060472;28;20033;-50
2021/01/23 12:54:45;;;;;;;1.38;0.20;;;6.70;99.90;;;;;;5055325;28;20060;-52
2021/01/23 12:57:11;;;;;;;0.77;0.15;;;6.70;99.90;;;;;;5061729;28;20033;-52